sensor_id;sensor_type;location;lat;lon;timestamp;P1;durP1;ratioP1;P2;durP2;ratioP2
74900;SDS011;63461;51.416;6.758;2023-04-06T00:01:59;18.40;;;7.57;;
74900;SDS011;63461;51.416;6.758;2023-04-06T00:04:55;18.97;;;6.70;;
74900;SDS011;63461;51.416;6.758;2023-04-06T00:12:23;18.23;;;7.87;;
74900;SDS011;63461;51.416;6.758;2023-04-06T00:18:48;20.13;;;7.13;;
74900;SDS011;63461;51.416;6.758;2023-04-06T00:22:03;18.37;;;7.87;;
74900;SDS011;63461;51.416;6.758;2023-04-06T00:25:07;17.20;;;6.57;;
74900;SDS011;63461;51.416;6.758;2023-04-06T00:28:26;11.10;;;5.63;;
74900;SDS011;63461;51.416;6.758;2023-04-06T00:53:59;10.93;;;5.37;;
74900;SDS011;63461;51.416;6.758;2023-04-06T01:00:40;13.60;;;6.40;;
74900;SDS011;63461;51.416;6.758;2023-04-06T01:03:14;15.67;;;6.57;;
74900;SDS011;63461;51.416;6.758;2023-04-06T01:05:42;18.43;;;6.50;;
74900;SDS011;63461;51.416;6.758;2023-04-06T01:23:18;13.13;;;6.10;;
74900;SDS011;63461;51.416;6.758;2023-04-06T01:25:46;15.27;;;6.30;;
74900;SDS011;63461;51.416;6.758;2023-04-06T01:28:21;14.33;;;5.73;;
74900;SDS011;63461;51.416;6.758;2023-04-06T01:31:10;15.47;;;6.07;;
74900;SDS011;63461;51.416;6.758;2023-04-06T01:37:45;16.27;;;6.73;;
74900;SDS011;63461;51.416;6.758;2023-04-06T01:40:24;15.87;;;6.20;;
74900;SDS011;63461;51.416;6.758;2023-04-06T01:43:04;14.47;;;6.47;;
74900;SDS011;63461;51.416;6.758;2023-04-06T01:49:41;15.33;;;5.97;;
74900;SDS011;63461;51.416;6.758;2023-04-06T01:52:11;14.30;;;6.37;;
74900;SDS011;63461;51.416;6.758;2023-04-06T01:54:49;16.10;;;6.20;;
74900;SDS011;63461;51.416;6.758;2023-04-06T01:57:35;16.90;;;6.17;;
74900;SDS011;63461;51.416;6.758;2023-04-06T02:00:38;17.43;;;6.73;;
74900;SDS011;63461;51.416;6.758;2023-04-06T02:03:08;17.00;;;6.87;;
74900;SDS011;63461;51.416;6.758;2023-04-06T02:05:39;17.87;;;7.30;;
74900;SDS011;63461;51.416;6.758;2023-04-06T02:08:39;17.60;;;7.17;;
74900;SDS011;63461;51.416;6.758;2023-04-06T02:11:17;13.93;;;6.60;;
74900;SDS011;63461;51.416;6.758;2023-04-06T03:00:40;18.53;;;7.77;;
74900;SDS011;63461;51.416;6.758;2023-04-06T03:21:01;16.07;;;7.83;;
74900;SDS011;63461;51.416;6.758;2023-04-06T03:27:42;19.67;;;8.07;;
74900;SDS011;63461;51.416;6.758;2023-04-06T03:30:12;17.03;;;8.63;;
74900;SDS011;63461;51.416;6.758;2023-04-06T03:33:00;17.60;;;8.30;;
74900;SDS011;63461;51.416;6.758;2023-04-06T03:35:29;20.80;;;8.43;;
74900;SDS011;63461;51.416;6.758;2023-04-06T03:37:58;20.57;;;7.80;;
74900;SDS011;63461;51.416;6.758;2023-04-06T03:40:27;23.53;;;8.27;;
74900;SDS011;63461;51.416;6.758;2023-04-06T03:42:53;17.80;;;8.30;;
74900;SDS011;63461;51.416;6.758;2023-04-06T03:45:22;18.30;;;8.67;;
74900;SDS011;63461;51.416;6.758;2023-04-06T03:47:52;17.83;;;8.30;;
74900;SDS011;63461;51.416;6.758;2023-04-06T03:50:19;20.43;;;8.43;;
74900;SDS011;63461;51.416;6.758;2023-04-06T03:52:45;23.57;;;8.47;;
74900;SDS011;63461;51.416;6.758;2023-04-06T03:55:10;19.50;;;8.87;;
74900;SDS011;63461;51.416;6.758;2023-04-06T03:57:36;20.03;;;8.57;;
74900;SDS011;63461;51.416;6.758;2023-04-06T04:00:03;19.00;;;8.27;;
74900;SDS011;63461;51.416;6.758;2023-04-06T04:02:40;18.23;;;7.73;;
74900;SDS011;63461;51.416;6.758;2023-04-06T04:05:08;16.73;;;7.93;;
74900;SDS011;63461;51.416;6.758;2023-04-06T04:07:36;17.80;;;8.47;;
74900;SDS011;63461;51.416;6.758;2023-04-06T04:10:02;18.80;;;8.30;;
74900;SDS011;63461;51.416;6.758;2023-04-06T04:12:31;22.03;;;8.43;;
74900;SDS011;63461;51.416;6.758;2023-04-06T04:15:00;19.63;;;8.93;;
74900;SDS011;63461;51.416;6.758;2023-04-06T04:17:29;16.57;;;7.77;;
74900;SDS011;63461;51.416;6.758;2023-04-06T04:19:55;20.10;;;8.10;;
74900;SDS011;63461;51.416;6.758;2023-04-06T04:22:21;18.00;;;7.93;;
74900;SDS011;63461;51.416;6.758;2023-04-06T04:24:47;16.77;;;7.97;;
74900;SDS011;63461;51.416;6.758;2023-04-06T04:27:13;18.23;;;8.33;;
74900;SDS011;63461;51.416;6.758;2023-04-06T04:29:42;16.70;;;8.03;;
74900;SDS011;63461;51.416;6.758;2023-04-06T04:32:21;14.97;;;8.27;;
74900;SDS011;63461;51.416;6.758;2023-04-06T04:34:48;14.97;;;8.10;;
74900;SDS011;63461;51.416;6.758;2023-04-06T04:37:26;20.33;;;8.03;;
74900;SDS011;63461;51.416;6.758;2023-04-06T04:39:55;18.67;;;8.27;;
74900;SDS011;63461;51.416;6.758;2023-04-06T04:42:23;19.60;;;8.70;;
74900;SDS011;63461;51.416;6.758;2023-04-06T04:44:55;19.23;;;7.77;;
74900;SDS011;63461;51.416;6.758;2023-04-06T04:47:41;15.60;;;7.83;;
74900;SDS011;63461;51.416;6.758;2023-04-06T04:50:24;18.00;;;8.40;;
74900;SDS011;63461;51.416;6.758;2023-04-06T04:52:54;16.67;;;7.67;;
74900;SDS011;63461;51.416;6.758;2023-04-06T04:55:23;19.60;;;7.63;;
74900;SDS011;63461;51.416;6.758;2023-04-06T04:57:52;21.33;;;8.10;;
74900;SDS011;63461;51.416;6.758;2023-04-06T05:00:23;18.40;;;8.90;;
74900;SDS011;63461;51.416;6.758;2023-04-06T05:02:53;23.20;;;8.60;;
74900;SDS011;63461;51.416;6.758;2023-04-06T05:05:24;17.10;;;7.73;;
74900;SDS011;63461;51.416;6.758;2023-04-06T05:07:51;16.03;;;8.03;;
74900;SDS011;63461;51.416;6.758;2023-04-06T05:10:38;19.83;;;8.07;;
74900;SDS011;63461;51.416;6.758;2023-04-06T05:13:05;20.17;;;8.20;;
74900;SDS011;63461;51.416;6.758;2023-04-06T05:15:31;18.73;;;7.93;;
74900;SDS011;63461;51.416;6.758;2023-04-06T05:18:05;19.07;;;7.47;;
74900;SDS011;63461;51.416;6.758;2023-04-06T05:20:34;14.67;;;7.53;;
74900;SDS011;63461;51.416;6.758;2023-04-06T05:23:00;18.30;;;7.80;;
74900;SDS011;63461;51.416;6.758;2023-04-06T05:25:26;13.30;;;6.63;;
74900;SDS011;63461;51.416;6.758;2023-04-06T05:27:55;18.33;;;7.63;;
74900;SDS011;63461;51.416;6.758;2023-04-06T05:30:29;16.23;;;7.80;;
74900;SDS011;63461;51.416;6.758;2023-04-06T05:32:55;16.40;;;7.77;;
74900;SDS011;63461;51.416;6.758;2023-04-06T05:35:24;19.10;;;7.87;;
74900;SDS011;63461;51.416;6.758;2023-04-06T05:37:54;20.30;;;7.67;;
74900;SDS011;63461;51.416;6.758;2023-04-06T05:40:23;16.93;;;7.03;;
74900;SDS011;63461;51.416;6.758;2023-04-06T05:42:49;18.03;;;7.50;;
74900;SDS011;63461;51.416;6.758;2023-04-06T05:45:15;18.17;;;7.80;;
74900;SDS011;63461;51.416;6.758;2023-04-06T05:47:50;18.53;;;7.53;;
74900;SDS011;63461;51.416;6.758;2023-04-06T05:50:21;17.43;;;7.43;;
74900;SDS011;63461;51.416;6.758;2023-04-06T05:52:47;16.30;;;7.30;;
74900;SDS011;63461;51.416;6.758;2023-04-06T05:55:16;20.60;;;8.10;;
74900;SDS011;63461;51.416;6.758;2023-04-06T05:57:47;15.30;;;7.50;;
74900;SDS011;63461;51.416;6.758;2023-04-06T06:00:16;18.33;;;8.13;;
74900;SDS011;63461;51.416;6.758;2023-04-06T06:02:55;14.03;;;6.70;;
74900;SDS011;63461;51.416;6.758;2023-04-06T06:05:25;17.60;;;7.37;;
74900;SDS011;63461;51.416;6.758;2023-04-06T06:07:52;17.37;;;6.87;;
74900;SDS011;63461;51.416;6.758;2023-04-06T06:10:17;11.03;;;6.20;;
74900;SDS011;63461;51.416;6.758;2023-04-06T06:12:43;13.67;;;6.37;;
74900;SDS011;63461;51.416;6.758;2023-04-06T06:15:11;15.17;;;6.53;;
74900;SDS011;63461;51.416;6.758;2023-04-06T06:17:42;13.97;;;6.50;;
74900;SDS011;63461;51.416;6.758;2023-04-06T06:20:08;14.73;;;6.63;;
74900;SDS011;63461;51.416;6.758;2023-04-06T06:22:34;15.87;;;6.23;;
74900;SDS011;63461;51.416;6.758;2023-04-06T06:25:02;16.97;;;6.80;;
74900;SDS011;63461;51.416;6.758;2023-04-06T06:27:28;12.13;;;5.63;;
74900;SDS011;63461;51.416;6.758;2023-04-06T06:29:54;14.53;;;6.33;;
74900;SDS011;63461;51.416;6.758;2023-04-06T06:32:22;11.60;;;6.03;;
74900;SDS011;63461;51.416;6.758;2023-04-06T06:34:50;13.20;;;5.83;;
74900;SDS011;63461;51.416;6.758;2023-04-06T06:37:17;15.20;;;5.97;;
74900;SDS011;63461;51.416;6.758;2023-04-06T06:39:43;13.47;;;5.60;;
74900;SDS011;63461;51.416;6.758;2023-04-06T06:42:09;13.53;;;6.07;;
74900;SDS011;63461;51.416;6.758;2023-04-06T06:44:51;11.67;;;6.03;;
74900;SDS011;63461;51.416;6.758;2023-04-06T06:47:17;18.70;;;6.30;;
74900;SDS011;63461;51.416;6.758;2023-04-06T06:49:43;17.13;;;7.80;;
74900;SDS011;63461;51.416;6.758;2023-04-06T06:52:09;14.30;;;6.17;;
74900;SDS011;63461;51.416;6.758;2023-04-06T06:54:35;13.10;;;5.80;;
74900;SDS011;63461;51.416;6.758;2023-04-06T06:57:01;17.20;;;6.00;;
74900;SDS011;63461;51.416;6.758;2023-04-06T06:59:27;10.47;;;5.53;;
74900;SDS011;63461;51.416;6.758;2023-04-06T07:01:53;13.20;;;5.40;;
74900;SDS011;63461;51.416;6.758;2023-04-06T07:04:18;20.10;;;6.60;;
74900;SDS011;63461;51.416;6.758;2023-04-06T07:06:44;11.63;;;5.43;;
74900;SDS011;63461;51.416;6.758;2023-04-06T07:09:10;12.77;;;6.10;;
74900;SDS011;63461;51.416;6.758;2023-04-06T07:11:36;12.03;;;5.80;;
74900;SDS011;63461;51.416;6.758;2023-04-06T07:14:02;13.37;;;5.50;;
74900;SDS011;63461;51.416;6.758;2023-04-06T07:16:28;10.10;;;5.60;;
74900;SDS011;63461;51.416;6.758;2023-04-06T07:18:54;13.27;;;5.40;;
74900;SDS011;63461;51.416;6.758;2023-04-06T07:21:21;12.93;;;5.80;;
74900;SDS011;63461;51.416;6.758;2023-04-06T07:23:47;11.90;;;5.20;;
74900;SDS011;63461;51.416;6.758;2023-04-06T07:26:13;12.60;;;5.63;;
74900;SDS011;63461;51.416;6.758;2023-04-06T07:28:39;14.87;;;6.30;;
74900;SDS011;63461;51.416;6.758;2023-04-06T07:31:06;15.40;;;6.23;;
74900;SDS011;63461;51.416;6.758;2023-04-06T07:33:33;13.07;;;5.90;;
74900;SDS011;63461;51.416;6.758;2023-04-06T07:35:58;12.23;;;5.90;;
74900;SDS011;63461;51.416;6.758;2023-04-06T07:38:25;13.97;;;6.27;;
74900;SDS011;63461;51.416;6.758;2023-04-06T07:40:51;12.77;;;6.30;;
74900;SDS011;63461;51.416;6.758;2023-04-06T07:43:17;16.00;;;6.87;;
74900;SDS011;63461;51.416;6.758;2023-04-06T07:45:43;15.00;;;7.97;;
74900;SDS011;63461;51.416;6.758;2023-04-06T07:48:10;14.03;;;7.73;;
74900;SDS011;63461;51.416;6.758;2023-04-06T07:50:36;12.53;;;6.87;;
74900;SDS011;63461;51.416;6.758;2023-04-06T07:53:03;14.50;;;6.37;;
74900;SDS011;63461;51.416;6.758;2023-04-06T07:55:30;10.93;;;5.57;;
74900;SDS011;63461;51.416;6.758;2023-04-06T07:57:56;16.27;;;6.40;;
74900;SDS011;63461;51.416;6.758;2023-04-06T08:00:22;11.43;;;5.60;;
74900;SDS011;63461;51.416;6.758;2023-04-06T08:02:48;15.10;;;7.07;;
74900;SDS011;63461;51.416;6.758;2023-04-06T08:05:14;14.73;;;6.93;;
74900;SDS011;63461;51.416;6.758;2023-04-06T08:07:40;14.50;;;6.57;;
74900;SDS011;63461;51.416;6.758;2023-04-06T08:10:06;16.23;;;7.80;;
74900;SDS011;63461;51.416;6.758;2023-04-06T08:12:35;22.93;;;8.27;;
74900;SDS011;63461;51.416;6.758;2023-04-06T08:15:01;24.53;;;9.43;;
74900;SDS011;63461;51.416;6.758;2023-04-06T08:17:28;32.37;;;11.50;;
74900;SDS011;63461;51.416;6.758;2023-04-06T08:19:56;21.33;;;8.73;;
74900;SDS011;63461;51.416;6.758;2023-04-06T08:22:22;16.27;;;7.30;;
74900;SDS011;63461;51.416;6.758;2023-04-06T08:24:47;16.03;;;7.40;;
74900;SDS011;63461;51.416;6.758;2023-04-06T08:27:13;23.77;;;8.60;;
74900;SDS011;63461;51.416;6.758;2023-04-06T08:29:40;16.83;;;7.40;;
74900;SDS011;63461;51.416;6.758;2023-04-06T08:32:06;11.63;;;6.20;;
74900;SDS011;63461;51.416;6.758;2023-04-06T08:34:32;10.13;;;5.17;;
74900;SDS011;63461;51.416;6.758;2023-04-06T08:36:58;16.60;;;7.63;;
74900;SDS011;63461;51.416;6.758;2023-04-06T08:39:24;15.83;;;7.37;;
74900;SDS011;63461;51.416;6.758;2023-04-06T08:41:52;20.70;;;8.20;;
74900;SDS011;63461;51.416;6.758;2023-04-06T08:44:22;15.20;;;6.93;;
74900;SDS011;63461;51.416;6.758;2023-04-06T08:46:48;14.23;;;7.07;;
74900;SDS011;63461;51.416;6.758;2023-04-06T08:49:16;17.90;;;7.13;;
74900;SDS011;63461;51.416;6.758;2023-04-06T08:51:41;14.97;;;7.00;;
74900;SDS011;63461;51.416;6.758;2023-04-06T08:54:07;15.00;;;6.67;;
74900;SDS011;63461;51.416;6.758;2023-04-06T08:56:36;14.40;;;7.37;;
74900;SDS011;63461;51.416;6.758;2023-04-06T08:59:03;14.33;;;5.50;;
74900;SDS011;63461;51.416;6.758;2023-04-06T09:01:31;18.57;;;7.50;;
74900;SDS011;63461;51.416;6.758;2023-04-06T09:04:01;16.57;;;6.90;;
74900;SDS011;63461;51.416;6.758;2023-04-06T09:06:31;18.27;;;6.93;;
74900;SDS011;63461;51.416;6.758;2023-04-06T09:08:57;17.57;;;7.13;;
74900;SDS011;63461;51.416;6.758;2023-04-06T09:11:23;21.37;;;6.67;;
74900;SDS011;63461;51.416;6.758;2023-04-06T09:13:55;16.73;;;7.03;;
74900;SDS011;63461;51.416;6.758;2023-04-06T09:16:22;16.80;;;7.37;;
74900;SDS011;63461;51.416;6.758;2023-04-06T09:18:49;17.30;;;7.30;;
74900;SDS011;63461;51.416;6.758;2023-04-06T09:21:18;16.00;;;7.43;;
74900;SDS011;63461;51.416;6.758;2023-04-06T09:23:45;14.70;;;6.53;;
74900;SDS011;63461;51.416;6.758;2023-04-06T09:26:15;17.63;;;7.83;;
74900;SDS011;63461;51.416;6.758;2023-04-06T09:28:44;18.30;;;8.17;;
74900;SDS011;63461;51.416;6.758;2023-04-06T09:31:10;16.90;;;7.47;;
74900;SDS011;63461;51.416;6.758;2023-04-06T09:33:41;16.00;;;7.47;;
74900;SDS011;63461;51.416;6.758;2023-04-06T09:36:10;17.87;;;7.43;;
74900;SDS011;63461;51.416;6.758;2023-04-06T09:38:39;18.73;;;8.30;;
74900;SDS011;63461;51.416;6.758;2023-04-06T09:41:28;19.07;;;8.10;;
74900;SDS011;63461;51.416;6.758;2023-04-06T09:44:05;23.13;;;7.97;;
74900;SDS011;63461;51.416;6.758;2023-04-06T09:46:33;16.47;;;7.83;;
74900;SDS011;63461;51.416;6.758;2023-04-06T09:49:03;19.67;;;8.00;;
74900;SDS011;63461;51.416;6.758;2023-04-06T09:51:30;25.73;;;8.83;;
74900;SDS011;63461;51.416;6.758;2023-04-06T09:54:00;19.27;;;7.77;;
74900;SDS011;63461;51.416;6.758;2023-04-06T09:56:30;17.33;;;8.27;;
74900;SDS011;63461;51.416;6.758;2023-04-06T09:59:05;16.53;;;7.83;;
74900;SDS011;63461;51.416;6.758;2023-04-06T10:01:35;21.20;;;8.50;;
74900;SDS011;63461;51.416;6.758;2023-04-06T10:06:43;18.23;;;8.13;;
74900;SDS011;63461;51.416;6.758;2023-04-06T10:09:13;21.07;;;8.57;;
74900;SDS011;63461;51.416;6.758;2023-04-06T10:11:40;20.90;;;8.73;;
74900;SDS011;63461;51.416;6.758;2023-04-06T10:14:06;21.47;;;8.40;;
74900;SDS011;63461;51.416;6.758;2023-04-06T10:16:33;19.30;;;8.03;;
74900;SDS011;63461;51.416;6.758;2023-04-06T10:19:04;14.47;;;6.37;;
74900;SDS011;63461;51.416;6.758;2023-04-06T10:21:37;22.13;;;9.00;;
74900;SDS011;63461;51.416;6.758;2023-04-06T10:24:07;24.70;;;9.37;;
74900;SDS011;63461;51.416;6.758;2023-04-06T10:26:36;15.40;;;7.20;;
74900;SDS011;63461;51.416;6.758;2023-04-06T10:29:05;17.33;;;8.00;;
74900;SDS011;63461;51.416;6.758;2023-04-06T10:31:31;22.30;;;8.93;;
74900;SDS011;63461;51.416;6.758;2023-04-06T10:33:57;27.07;;;9.17;;
74900;SDS011;63461;51.416;6.758;2023-04-06T10:36:25;21.17;;;8.83;;
74900;SDS011;63461;51.416;6.758;2023-04-06T10:38:53;21.03;;;8.03;;
74900;SDS011;63461;51.416;6.758;2023-04-06T10:41:31;19.77;;;7.93;;
74900;SDS011;63461;51.416;6.758;2023-04-06T10:43:58;20.50;;;8.53;;
74900;SDS011;63461;51.416;6.758;2023-04-06T10:46:29;19.83;;;8.33;;
74900;SDS011;63461;51.416;6.758;2023-04-06T10:48:57;19.90;;;8.37;;
74900;SDS011;63461;51.416;6.758;2023-04-06T10:51:27;24.17;;;9.10;;
74900;SDS011;63461;51.416;6.758;2023-04-06T10:53:54;18.90;;;8.37;;
74900;SDS011;63461;51.416;6.758;2023-04-06T10:56:24;20.60;;;8.83;;
74900;SDS011;63461;51.416;6.758;2023-04-06T10:58:53;23.73;;;8.47;;
74900;SDS011;63461;51.416;6.758;2023-04-06T11:01:23;23.20;;;10.30;;
74900;SDS011;63461;51.416;6.758;2023-04-06T11:03:52;24.77;;;10.57;;
74900;SDS011;63461;51.416;6.758;2023-04-06T11:06:23;23.07;;;9.37;;
74900;SDS011;63461;51.416;6.758;2023-04-06T11:08:50;25.97;;;10.00;;
74900;SDS011;63461;51.416;6.758;2023-04-06T11:11:17;27.20;;;9.40;;
74900;SDS011;63461;51.416;6.758;2023-04-06T11:29:18;25.73;;;11.43;;
74900;SDS011;63461;51.416;6.758;2023-04-06T11:31:47;24.47;;;10.13;;
74900;SDS011;63461;51.416;6.758;2023-04-06T11:34:13;26.20;;;10.50;;
74900;SDS011;63461;51.416;6.758;2023-04-06T11:36:44;25.90;;;10.17;;
74900;SDS011;63461;51.416;6.758;2023-04-06T11:39:11;25.33;;;10.67;;
74900;SDS011;63461;51.416;6.758;2023-04-06T11:41:38;26.33;;;10.47;;
74900;SDS011;63461;51.416;6.758;2023-04-06T11:44:05;27.23;;;10.23;;
74900;SDS011;63461;51.416;6.758;2023-04-06T11:46:31;24.97;;;10.53;;
74900;SDS011;63461;51.416;6.758;2023-04-06T11:48:58;26.03;;;11.20;;
74900;SDS011;63461;51.416;6.758;2023-04-06T11:51:25;23.53;;;10.87;;
74900;SDS011;63461;51.416;6.758;2023-04-06T11:53:52;22.50;;;10.37;;
74900;SDS011;63461;51.416;6.758;2023-04-06T11:56:28;24.97;;;10.07;;
74900;SDS011;63461;51.416;6.758;2023-04-06T11:58:58;28.30;;;11.37;;
74900;SDS011;63461;51.416;6.758;2023-04-06T12:01:26;25.50;;;10.17;;
74900;SDS011;63461;51.416;6.758;2023-04-06T12:03:53;26.73;;;10.60;;
74900;SDS011;63461;51.416;6.758;2023-04-06T12:06:19;28.03;;;9.87;;
74900;SDS011;63461;51.416;6.758;2023-04-06T12:08:45;22.33;;;9.70;;
74900;SDS011;63461;51.416;6.758;2023-04-06T12:11:11;28.43;;;10.23;;
74900;SDS011;63461;51.416;6.758;2023-04-06T12:13:37;28.17;;;10.00;;
74900;SDS011;63461;51.416;6.758;2023-04-06T12:16:03;22.87;;;9.03;;
74900;SDS011;63461;51.416;6.758;2023-04-06T12:18:29;21.57;;;8.87;;
74900;SDS011;63461;51.416;6.758;2023-04-06T12:20:55;26.67;;;9.30;;
74900;SDS011;63461;51.416;6.758;2023-04-06T12:23:21;25.97;;;9.70;;
74900;SDS011;63461;51.416;6.758;2023-04-06T12:25:47;23.43;;;11.07;;
74900;SDS011;63461;51.416;6.758;2023-04-06T12:28:13;21.77;;;10.17;;
74900;SDS011;63461;51.416;6.758;2023-04-06T12:30:39;26.00;;;11.27;;
74900;SDS011;63461;51.416;6.758;2023-04-06T12:33:06;24.57;;;11.13;;
74900;SDS011;63461;51.416;6.758;2023-04-06T12:35:35;23.07;;;9.87;;
74900;SDS011;63461;51.416;6.758;2023-04-06T12:38:02;29.77;;;11.20;;
74900;SDS011;63461;51.416;6.758;2023-04-06T12:40:28;22.07;;;9.57;;
74900;SDS011;63461;51.416;6.758;2023-04-06T12:42:56;19.63;;;9.30;;
74900;SDS011;63461;51.416;6.758;2023-04-06T12:45:22;21.03;;;9.57;;
74900;SDS011;63461;51.416;6.758;2023-04-06T12:47:50;24.03;;;10.23;;
74900;SDS011;63461;51.416;6.758;2023-04-06T12:50:16;22.93;;;9.60;;
74900;SDS011;63461;51.416;6.758;2023-04-06T12:52:42;18.33;;;8.03;;
74900;SDS011;63461;51.416;6.758;2023-04-06T12:55:08;17.80;;;7.93;;
74900;SDS011;63461;51.416;6.758;2023-04-06T12:57:34;19.07;;;7.27;;
74900;SDS011;63461;51.416;6.758;2023-04-06T13:00:00;18.33;;;7.73;;
74900;SDS011;63461;51.416;6.758;2023-04-06T13:02:26;22.50;;;8.97;;
74900;SDS011;63461;51.416;6.758;2023-04-06T13:04:52;20.00;;;8.17;;
74900;SDS011;63461;51.416;6.758;2023-04-06T13:07:18;15.73;;;6.80;;
74900;SDS011;63461;51.416;6.758;2023-04-06T13:09:44;15.63;;;6.63;;
74900;SDS011;63461;51.416;6.758;2023-04-06T13:12:14;12.17;;;5.77;;
74900;SDS011;63461;51.416;6.758;2023-04-06T13:14:43;12.97;;;6.50;;
74900;SDS011;63461;51.416;6.758;2023-04-06T13:17:09;13.03;;;6.00;;
74900;SDS011;63461;51.416;6.758;2023-04-06T13:19:35;13.27;;;5.97;;
74900;SDS011;63461;51.416;6.758;2023-04-06T13:22:01;13.40;;;6.23;;
74900;SDS011;63461;51.416;6.758;2023-04-06T13:24:26;12.63;;;5.30;;
74900;SDS011;63461;51.416;6.758;2023-04-06T13:26:53;10.13;;;4.50;;
74900;SDS011;63461;51.416;6.758;2023-04-06T13:29:19;13.83;;;5.00;;
74900;SDS011;63461;51.416;6.758;2023-04-06T13:31:44;11.03;;;5.13;;
74900;SDS011;63461;51.416;6.758;2023-04-06T13:34:10;11.80;;;5.33;;
74900;SDS011;63461;51.416;6.758;2023-04-06T13:36:36;13.03;;;5.23;;
74900;SDS011;63461;51.416;6.758;2023-04-06T13:39:02;13.20;;;5.50;;
74900;SDS011;63461;51.416;6.758;2023-04-06T13:41:28;11.57;;;5.30;;
74900;SDS011;63461;51.416;6.758;2023-04-06T13:43:54;12.70;;;5.00;;
74900;SDS011;63461;51.416;6.758;2023-04-06T13:46:20;13.33;;;6.00;;
74900;SDS011;63461;51.416;6.758;2023-04-06T13:48:47;11.57;;;5.87;;
74900;SDS011;63461;51.416;6.758;2023-04-06T13:51:14;11.20;;;6.17;;
74900;SDS011;63461;51.416;6.758;2023-04-06T13:53:40;14.07;;;6.40;;
74900;SDS011;63461;51.416;6.758;2023-04-06T13:56:06;14.97;;;6.10;;
74900;SDS011;63461;51.416;6.758;2023-04-06T13:58:33;14.30;;;6.23;;
74900;SDS011;63461;51.416;6.758;2023-04-06T14:01:03;17.57;;;6.87;;
74900;SDS011;63461;51.416;6.758;2023-04-06T14:03:37;10.67;;;6.23;;
74900;SDS011;63461;51.416;6.758;2023-04-06T14:06:11;12.97;;;6.53;;
74900;SDS011;63461;51.416;6.758;2023-04-06T14:08:37;10.67;;;6.03;;
74900;SDS011;63461;51.416;6.758;2023-04-06T14:11:03;11.97;;;5.53;;
74900;SDS011;63461;51.416;6.758;2023-04-06T14:13:29;11.90;;;6.00;;
74900;SDS011;63461;51.416;6.758;2023-04-06T14:15:55;13.03;;;6.73;;
74900;SDS011;63461;51.416;6.758;2023-04-06T14:18:22;9.97;;;5.33;;
74900;SDS011;63461;51.416;6.758;2023-04-06T14:20:54;15.10;;;6.87;;
74900;SDS011;63461;51.416;6.758;2023-04-06T14:23:21;13.63;;;5.90;;
74900;SDS011;63461;51.416;6.758;2023-04-06T14:25:47;13.83;;;6.07;;
74900;SDS011;63461;51.416;6.758;2023-04-06T14:28:13;10.63;;;5.27;;
74900;SDS011;63461;51.416;6.758;2023-04-06T14:30:40;12.37;;;5.70;;
74900;SDS011;63461;51.416;6.758;2023-04-06T14:33:06;13.20;;;5.33;;
74900;SDS011;63461;51.416;6.758;2023-04-06T14:35:32;10.37;;;5.53;;
74900;SDS011;63461;51.416;6.758;2023-04-06T14:37:58;14.53;;;6.07;;
74900;SDS011;63461;51.416;6.758;2023-04-06T14:40:24;12.73;;;6.00;;
74900;SDS011;63461;51.416;6.758;2023-04-06T14:42:50;13.53;;;5.83;;
74900;SDS011;63461;51.416;6.758;2023-04-06T14:45:17;10.93;;;6.03;;
74900;SDS011;63461;51.416;6.758;2023-04-06T14:47:44;13.00;;;6.30;;
74900;SDS011;63461;51.416;6.758;2023-04-06T14:50:10;15.97;;;6.60;;
74900;SDS011;63461;51.416;6.758;2023-04-06T14:52:36;14.30;;;7.00;;
74900;SDS011;63461;51.416;6.758;2023-04-06T14:55:02;13.83;;;6.40;;
74900;SDS011;63461;51.416;6.758;2023-04-06T14:57:29;13.30;;;6.50;;
74900;SDS011;63461;51.416;6.758;2023-04-06T14:59:56;14.53;;;7.23;;
74900;SDS011;63461;51.416;6.758;2023-04-06T15:02:21;16.03;;;7.17;;
74900;SDS011;63461;51.416;6.758;2023-04-06T15:04:47;12.50;;;6.80;;
74900;SDS011;63461;51.416;6.758;2023-04-06T15:07:13;15.30;;;6.97;;
74900;SDS011;63461;51.416;6.758;2023-04-06T15:09:43;15.37;;;7.37;;
74900;SDS011;63461;51.416;6.758;2023-04-06T15:12:23;13.33;;;7.33;;
74900;SDS011;63461;51.416;6.758;2023-04-06T15:14:49;12.10;;;6.63;;
74900;SDS011;63461;51.416;6.758;2023-04-06T15:17:15;14.77;;;7.50;;
74900;SDS011;63461;51.416;6.758;2023-04-06T15:19:41;14.13;;;6.53;;
74900;SDS011;63461;51.416;6.758;2023-04-06T15:22:06;14.10;;;7.00;;
74900;SDS011;63461;51.416;6.758;2023-04-06T15:24:32;14.03;;;7.10;;
74900;SDS011;63461;51.416;6.758;2023-04-06T15:26:58;17.30;;;7.27;;
74900;SDS011;63461;51.416;6.758;2023-04-06T15:29:25;14.07;;;6.63;;
74900;SDS011;63461;51.416;6.758;2023-04-06T15:32:20;17.30;;;7.10;;
74900;SDS011;63461;51.416;6.758;2023-04-06T15:35:18;13.77;;;6.77;;
74900;SDS011;63461;51.416;6.758;2023-04-06T15:37:44;11.10;;;6.03;;
74900;SDS011;63461;51.416;6.758;2023-04-06T15:40:10;14.53;;;6.80;;
74900;SDS011;63461;51.416;6.758;2023-04-06T15:42:38;13.53;;;6.80;;
74900;SDS011;63461;51.416;6.758;2023-04-06T15:45:08;14.47;;;6.80;;
74900;SDS011;63461;51.416;6.758;2023-04-06T15:47:43;13.83;;;6.93;;
74900;SDS011;63461;51.416;6.758;2023-04-06T15:50:10;13.70;;;7.20;;
74900;SDS011;63461;51.416;6.758;2023-04-06T15:52:43;13.17;;;6.73;;
74900;SDS011;63461;51.416;6.758;2023-04-06T15:55:09;12.47;;;6.20;;
74900;SDS011;63461;51.416;6.758;2023-04-06T15:57:34;13.20;;;5.97;;
74900;SDS011;63461;51.416;6.758;2023-04-06T16:00:00;10.50;;;5.77;;
74900;SDS011;63461;51.416;6.758;2023-04-06T16:02:27;12.77;;;6.40;;
74900;SDS011;63461;51.416;6.758;2023-04-06T16:04:56;11.00;;;5.77;;
74900;SDS011;63461;51.416;6.758;2023-04-06T16:07:25;16.50;;;6.63;;
74900;SDS011;63461;51.416;6.758;2023-04-06T16:09:50;11.33;;;5.83;;
74900;SDS011;63461;51.416;6.758;2023-04-06T16:12:16;12.70;;;5.37;;
74900;SDS011;63461;51.416;6.758;2023-04-06T16:14:43;10.23;;;4.77;;
74900;SDS011;63461;51.416;6.758;2023-04-06T16:17:09;12.97;;;5.90;;
74900;SDS011;63461;51.416;6.758;2023-04-06T16:19:34;11.07;;;5.67;;
74900;SDS011;63461;51.416;6.758;2023-04-06T16:22:00;13.80;;;6.50;;
74900;SDS011;63461;51.416;6.758;2023-04-06T16:24:27;14.57;;;6.00;;
74900;SDS011;63461;51.416;6.758;2023-04-06T16:26:53;13.83;;;5.80;;
74900;SDS011;63461;51.416;6.758;2023-04-06T16:29:22;12.27;;;6.00;;
74900;SDS011;63461;51.416;6.758;2023-04-06T16:32:29;12.27;;;6.70;;
74900;SDS011;63461;51.416;6.758;2023-04-06T16:35:20;12.73;;;6.83;;
74900;SDS011;63461;51.416;6.758;2023-04-06T16:37:47;15.43;;;7.10;;
74900;SDS011;63461;51.416;6.758;2023-04-06T16:40:13;12.40;;;6.60;;
74900;SDS011;63461;51.416;6.758;2023-04-06T16:42:43;14.70;;;6.87;;
74900;SDS011;63461;51.416;6.758;2023-04-06T16:45:14;14.57;;;7.30;;
74900;SDS011;63461;51.416;6.758;2023-04-06T16:47:51;13.97;;;7.03;;
74900;SDS011;63461;51.416;6.758;2023-04-06T16:50:17;9.90;;;4.60;;
74900;SDS011;63461;51.416;6.758;2023-04-06T16:52:43;13.73;;;6.10;;
74900;SDS011;63461;51.416;6.758;2023-04-06T16:55:08;13.13;;;7.27;;
74900;SDS011;63461;51.416;6.758;2023-04-06T16:57:44;17.07;;;7.93;;
74900;SDS011;63461;51.416;6.758;2023-04-06T17:01:21;14.90;;;6.63;;
74900;SDS011;63461;51.416;6.758;2023-04-06T17:03:49;11.23;;;6.17;;
74900;SDS011;63461;51.416;6.758;2023-04-06T17:06:15;17.43;;;9.00;;
74900;SDS011;63461;51.416;6.758;2023-04-06T17:08:42;12.40;;;6.77;;
74900;SDS011;63461;51.416;6.758;2023-04-06T17:11:09;12.17;;;6.97;;
74900;SDS011;63461;51.416;6.758;2023-04-06T17:13:36;15.43;;;6.97;;